CDT,Max TemperatureF,Mean TemperatureF,Min TemperatureF,Max Dew PointF,MeanDew PointF,Min DewpointF,Max Humidity, Mean Humidity, Min Humidity, Max Sea Level PressureIn, Mean Sea Level PressureIn, Min Sea Level PressureIn, Max VisibilityMiles, Mean VisibilityMiles, Min VisibilityMiles, Max Wind SpeedMPH, Mean Wind SpeedMPH, Max Gust SpeedMPH,PrecipitationIn, CloudCover, Events, WindDirDegrees
2013-9-1,81,71,61,66,61,53,92,71,39,29.98,29.88,29.81,10,10,5,20,6,25,0.10,1,Rain,319
2013-9-2,77,66,55,58,54,47,94,71,36,30.07,30.03,29.98,10,10,7,10,5,16,0.00,0,,333
2013-9-3,80,64,48,61,53,47,100,74,35,30.13,30.08,30.04,10,9,0,6,2,,0.00,0,Fog,91
2013-9-4,87,72,56,64,56,53,89,62,31,30.18,30.13,30.07,10,10,7,8,4,,0.00,0,,197
2013-9-5,87,74,62,67,61,58,89,67,37,30.22,30.17,30.13,10,10,7,8,3,,0.00,0,,228
2013-9-6,90,77,64,61,57,50,82,55,27,30.16,30.08,29.98,10,10,10,10,5,17,0.00,0,,170
2013-9-7,98,84,70,69,63,58,81,58,29,29.99,29.93,29.86,10,10,7,14,7,20,0.00,0,,219
2013-9-8,91,80,68,71,69,66,94,74,47,29.93,29.89,29.83,10,9,2,9,4,,0.00,0,,42
2013-9-9,98,84,72,69,61,55,88,50,25,29.91,29.86,29.83,10,10,7,16,8,25,0.00,0,,202
2013-9-10,96,82,68,62,59,56,73,47,26,30.03,29.98,29.91,10,10,7,20,9,28,0.00,1,,201
2013-9-11,85,76,68,68,65,61,88,69,50,30.13,30.09,30.03,10,10,5,9,5,,0.00,4,Rain,257
2013-9-12,78,68,57,66,51,39,88,56,24,30.20,30.15,30.08,10,10,10,16,7,24,0.00,1,,337
2013-9-13,73,60,47,48,44,38,89,61,29,30.25,30.18,30.12,10,10,7,9,5,,0.00,0,,29
2013-9-14,76,61,46,43,40,34,81,49,22,30.14,30.06,29.94,10,10,7,12,6,18,0.00,0,,158
2013-9-15,71,62,52,62,54,43,91,75,44,30.23,30.02,29.90,10,10,3,16,9,21,0.66,6,Rain,267
2013-9-16,63,56,50,53,51,48,95,86,68,30.36,30.28,30.23,10,9,3,13,6,,0.00,4,,66
2013-9-17,65,60,54,62,57,51,95,90,84,30.25,30.12,29.99,10,6,3,12,6,17,0.19,8,Rain,128
2013-9-18,88,76,64,68,65,61,92,71,45,30.01,29.88,29.79,10,8,4,16,10,25,0.00,3,,170
2013-9-19,87,75,63,68,65,60,94,79,49,29.90,29.83,29.73,10,10,5,25,10,43,0.48,4,Rain,196
2013-9-20,69,60,51,58,49,45,85,70,48,30.01,29.97,29.90,10,10,10,18,9,23,0.07,3,,292
2013-9-21,70,56,43,50,44,39,91,67,35,30.05,29.98,29.92,10,10,7,9,4,,0.00,0,,292
2013-9-22,76,62,48,52,47,44,84,63,39,30.00,29.94,29.90,10,10,7,13,6,17,0.00,0,,146
2013-9-23,75,61,47,51,48,45,92,64,36,29.98,29.91,29.85,10,10,7,17,8,24,0.00,0,,131
2013-9-24,69,62,55,61,54,49,96,80,59,29.90,29.86,29.83,10,9,1,10,7,,0.55,4,Rain,82
2013-9-25,77,64,50,61,55,49,94,79,51,29.94,29.89,29.85,10,9,5,10,4,,0.00,0,,79
2013-9-26,83,70,57,62,58,56,95,72,40,29.95,29.91,29.88,10,8,3,16,7,25,0.00,0,,133
2013-9-27,84,74,64,61,59,56,87,67,38,30.00,29.94,29.89,10,10,7,16,9,24,0.00,0,,142
2013-9-28,67,58,48,63,56,45,91,84,66,30.07,29.92,29.82,10,9,2,18,9,29,0.21,4,Rain,202
2013-9-29,72,58,44,49,43,39,90,65,31,30.09,30.03,29.94,10,10,7,10,5,,0.00,0,,194
2013-9-30,76,60,46,58,49,45,93,67,33,29.94,29.86,29.78,10,10,7,13,7,21,0.00,0,,174